Time;durP1;ratioP1;P1;durP2;ratioP2;P2;SDS_P1;SDS_P2;PMS_P1;PMS_P2;Temp;Humidity;BMP_temperature;BMP_pressure;BME280_temperature;BME280_humidity;BME280_pressure;Samples;Min_cycle;Max_cycle;Signal;HPM_P1;HPM_P2
2021/05/04 00:00:47;;;;;;;17.08;13.27;;;11.10;99.90;;;11.38;72.37;99821.63;5072126;28;20067;-73
2021/05/04 00:03:15;;;;;;;15.32;13.82;;;11.10;99.90;;;11.34;72.59;99806.75;5071838;28;20130;-73
2021/05/04 00:05:42;;;;;;;16.13;14.40;;;11.10;99.90;;;11.25;73.36;99811.38;5072351;28;20095;-73
2021/05/04 00:08:10;;;;;;;15.65;13.57;;;11.00;99.90;;;11.28;73.49;99812.22;5072006;28;20560;-73
2021/05/04 00:10:38;;;;;;;17.08;13.77;;;11.00;99.90;;;11.36;73.66;99804.91;5072274;28;20425;-73
2021/05/04 00:13:05;;;;;;;16.80;13.98;;;11.10;99.90;;;11.25;73.92;99787.56;5075719;28;20052;-73
2021/05/04 00:15:33;;;;;;;16.10;13.65;;;11.00;99.90;;;11.17;74.49;99774.53;5108445;28;20543;-73
2021/05/04 00:18:00;;;;;;;16.63;13.82;;;10.90;99.90;;;11.20;74.38;99765.66;5075699;28;20136;-73
2021/05/04 00:20:28;;;;;;;18.00;13.38;;;10.90;99.90;;;11.28;74.44;99761.91;5075484;28;20051;-73
2021/05/04 00:22:55;;;;;;;17.58;14.35;;;11.00;99.90;;;11.12;74.70;99762.31;5075710;28;20060;-74
2021/05/04 00:25:23;;;;;;;16.42;14.30;;;10.90;99.90;;;11.24;74.69;99739.06;5075421;28;20448;-73
2021/05/04 00:27:51;;;;;;;14.77;13.15;;;10.90;99.90;;;11.30;75.07;99738.06;5075614;28;20066;-73
2021/05/04 00:30:19;;;;;;;19.10;13.73;;;11.00;99.90;;;11.25;74.96;99735.50;5074389;28;20402;-73
2021/05/04 00:32:46;;;;;;;21.48;14.15;;;11.00;99.90;;;11.16;75.10;99748.09;5075141;28;20040;-74
2021/05/04 00:35:14;;;;;;;19.75;13.98;;;11.00;99.90;;;11.16;75.33;99729.56;5075215;28;20052;-73
2021/05/04 00:37:41;;;;;;;15.65;13.90;;;10.90;99.90;;;11.07;76.26;99704.19;5075403;28;20123;-74
2021/05/04 00:40:11;;;;;;;14.40;12.30;;;10.90;99.90;;;11.00;76.98;99701.75;5074129;28;20056;-73
2021/05/04 00:42:39;;;;;;;17.70;12.73;;;10.80;99.90;;;10.92;76.85;99685.22;5075397;28;20106;-73
2021/05/04 00:45:08;;;;;;;15.60;12.48;;;10.80;99.90;;;10.82;77.56;99690.72;5074888;28;20490;-73
2021/05/04 00:47:35;;;;;;;14.43;12.40;;;10.60;99.90;;;10.85;77.87;99687.13;5075023;28;20076;-73
2021/05/04 00:50:03;;;;;;;12.68;11.38;;;10.60;99.90;;;10.82;77.98;99676.63;5073965;28;20132;-73
2021/05/04 00:52:31;;;;;;;13.15;11.40;;;10.60;99.90;;;10.81;78.02;99674.91;5075219;28;20040;-73
2021/05/04 00:54:59;;;;;;;13.32;11.32;;;10.60;99.90;;;10.67;78.44;99630.28;5074873;28;20518;-73
2021/05/04 00:57:26;;;;;;;13.25;9.75;;;10.60;99.90;;;10.72;77.47;99660.09;5075070;28;20041;-73
2021/05/04 00:59:56;;;;;;;17.30;9.50;;;10.50;99.90;;;10.70;77.37;99651.34;5074823;28;20839;-73
2021/05/04 01:02:24;;;;;;;16.13;8.70;;;10.50;99.90;;;10.59;76.51;99673.66;5075019;28;20056;-73
2021/05/04 01:04:52;;;;;;;10.23;8.20;;;10.40;99.90;;;10.63;76.27;99630.38;5074452;28;20048;-73
2021/05/04 01:07:20;;;;;;;11.75;8.57;;;10.40;99.90;;;10.64;75.92;99619.78;5073611;28;20056;-73
2021/05/04 01:09:47;;;;;;;13.77;8.38;;;10.40;99.90;;;10.65;75.97;99600.34;5074879;28;20068;-72
2021/05/04 01:12:15;;;;;;;10.32;8.43;;;10.50;99.90;;;10.69;76.16;99617.00;5074757;28;20401;-73
2021/05/04 01:14:42;;;;;;;13.57;8.40;;;10.50;99.90;;;10.73;75.90;99616.91;5074936;28;20040;-74
2021/05/04 01:17:11;;;;;;;11.15;8.55;;;10.50;99.90;;;10.60;76.01;99589.03;5074667;28;20041;-74
2021/05/04 01:19:39;;;;;;;10.60;7.85;;;10.40;99.90;;;10.06;75.48;99460.91;5074711;28;20044;-73
2021/05/04 01:22:07;;;;;;;9.43;7.13;;;10.50;99.90;;;10.63;75.68;99561.63;5074944;28;20040;-73
2021/05/04 01:24:36;;;;;;;9.10;7.70;;;10.50;99.90;;;10.70;75.33;99610.84;5074064;28;20040;-73
2021/05/04 01:27:03;;;;;;;10.38;7.85;;;10.50;99.90;;;10.81;75.60;99555.88;5074237;28;20052;-73
2021/05/04 01:29:31;;;;;;;13.73;7.75;;;10.60;99.90;;;10.79;75.78;99577.09;5074754;28;20041;-73
2021/05/04 01:31:58;;;;;;;8.55;7.65;;;10.60;99.90;;;10.87;75.99;99559.25;5073191;28;20102;-73
2021/05/04 01:34:26;;;;;;;13.25;8.93;;;10.60;99.90;;;10.92;76.46;99556.44;5072810;28;20082;-73
2021/05/04 01:36:54;;;;;;;10.82;7.97;;;10.70;99.90;;;10.90;76.23;99542.41;5089854;28;20048;-72
2021/05/04 01:39:38;;;;;;;14.85;7.80;;;10.70;99.90;;;10.86;76.48;99522.22;5073012;28;20375;-73
2021/05/04 01:42:06;;;;;;;14.18;8.20;;;10.60;99.90;;;10.89;76.63;99533.63;5074347;28;20049;-73
2021/05/04 01:44:33;;;;;;;11.73;7.88;;;10.70;99.90;;;10.86;76.25;99517.81;5074304;28;20119;-73
2021/05/04 01:47:02;;;;;;;12.68;7.90;;;10.70;99.90;;;10.89;76.71;99478.06;5073793;28;20140;-74
2021/05/04 01:49:30;;;;;;;10.27;7.47;;;10.70;99.90;;;10.85;76.91;99473.78;5074050;28;20039;-73
2021/05/04 01:51:58;;;;;;;10.75;7.68;;;10.60;99.90;;;10.87;76.86;99489.59;5073746;28;20397;-73
2021/05/04 01:54:26;;;;;;;9.32;8.20;;;10.70;99.90;;;10.92;76.45;99452.44;5074251;28;20041;-73
2021/05/04 01:56:57;;;;;;;13.30;7.30;;;10.70;99.90;;;10.89;76.88;99463.97;5073867;28;20079;-73
2021/05/04 01:59:26;;;;;;;7.38;6.63;;;10.70;99.90;;;10.93;76.67;99470.03;5106611;28;20387;-73
2021/05/04 02:01:55;;;;;;;8.75;7.85;;;10.70;99.90;;;10.96;76.81;99504.31;5073546;28;20052;-73
2021/05/04 02:04:24;;;;;;;8.68;7.78;;;10.70;99.90;;;10.85;76.87;99468.47;5073638;28;20114;-73
2021/05/04 02:06:53;;;;;;;9.60;8.07;;;10.70;99.90;;;10.29;77.78;99383.72;5073750;28;20563;-73
2021/05/04 02:09:20;;;;;;;9.02;8.13;;;10.70;99.90;;;10.84;78.95;99477.31;5073666;28;20044;-72
2021/05/04 02:11:48;;;;;;;10.43;8.95;;;10.60;99.90;;;10.71;80.21;99449.47;5073647;28;20067;-73
2021/05/04 02:14:16;;;;;;;12.02;8.75;;;10.50;99.90;;;10.70;81.06;99450.38;5072240;28;20494;-73
2021/05/04 02:16:43;;;;;;;10.00;9.10;;;10.50;99.90;;;10.66;81.45;99459.34;5073447;28;20040;-73
2021/05/04 02:19:11;;;;;;;11.98;9.65;;;10.50;99.90;;;10.58;82.11;99460.44;5073551;28;20032;-73
2021/05/04 02:21:38;;;;;;;10.05;9.15;;;10.40;99.90;;;10.46;82.78;99426.41;5073479;28;20056;-73
2021/05/04 02:24:07;;;;;;;11.90;10.20;;;10.30;99.90;;;10.23;83.81;99402.38;5073412;28;20052;-72
2021/05/04 02:26:34;;;;;;;14.85;9.90;;;10.10;99.90;;;10.25;84.33;99432.25;5073170;28;20490;-72
2021/05/04 02:29:03;;;;;;;15.23;9.82;;;10.00;99.90;;;10.27;85.25;99464.78;5073374;28;20059;-72
2021/05/04 02:31:30;;;;;;;12.07;9.63;;;10.00;99.90;;;10.18;85.56;99415.69;5073396;28;20050;-73
2021/05/04 02:33:58;;;;;;;10.80;9.63;;;10.00;99.90;;;10.18;85.99;99410.41;5073072;28;20048;-73
2021/05/04 02:36:25;;;;;;;12.95;9.52;;;9.90;99.90;;;10.15;85.66;99429.00;5072579;28;20040;-73
2021/05/04 02:38:53;;;;;;;12.73;10.15;;;9.90;99.90;;;10.19;85.54;99392.78;5073293;28;20157;-72
2021/05/04 02:41:20;;;;;;;11.93;9.40;;;9.90;99.90;;;10.02;85.85;99382.63;5073075;28;20489;-73
2021/05/04 02:43:47;;;;;;;10.45;9.23;;;9.90;99.90;;;10.15;86.45;99406.97;5072824;28;20045;-72
2021/05/04 02:46:16;;;;;;;10.48;9.27;;;9.90;99.90;;;10.10;86.52;99367.50;5073141;28;20051;-72
2021/05/04 02:48:44;;;;;;;13.88;10.10;;;9.90;99.90;;;10.10;86.63;99358.69;5073150;28;20047;-73
2021/05/04 02:51:12;;;;;;;11.13;9.25;;;9.90;99.90;;;10.09;86.38;99385.97;5073000;28;20048;-73
2021/05/04 02:53:40;;;;;;;10.65;9.48;;;9.90;99.90;;;10.17;86.53;99360.25;5073027;28;20048;-72
2021/05/04 02:56:10;;;;;;;12.15;9.65;;;9.90;99.90;;;10.18;85.61;99348.78;5071710;28;20061;-73
2021/05/04 02:58:37;;;;;;;12.77;8.82;;;10.00;99.90;;;10.17;85.38;99321.50;5072909;28;20767;-73
2021/05/04 03:01:05;;;;;;;9.90;8.27;;;10.00;99.90;;;10.32;85.06;99326.34;5071695;28;20044;-73
2021/05/04 03:03:35;;;;;;;10.95;7.88;;;10.00;99.90;;;10.27;84.54;99306.25;5072668;28;20074;-73
2021/05/04 03:06:03;;;;;;;10.73;8.17;;;10.10;99.90;;;10.27;84.31;99348.53;5072687;28;20080;-73
2021/05/04 03:08:31;;;;;;;10.68;7.95;;;10.10;99.90;;;10.27;84.16;99333.56;5071578;28;20056;-73
2021/05/04 03:10:59;;;;;;;11.13;7.38;;;10.10;99.90;;;10.31;84.70;99355.47;5072860;28;20087;-73
2021/05/04 03:13:28;;;;;;;8.80;7.68;;;10.10;99.90;;;10.37;84.37;99319.19;5072683;28;20044;-73
2021/05/04 03:15:56;;;;;;;10.25;6.90;;;10.10;99.90;;;10.35;84.46;99330.69;5072832;28;20041;-73
2021/05/04 03:18:24;;;;;;;13.45;7.30;;;10.20;99.90;;;10.31;84.78;99284.13;5071433;28;20045;-74
2021/05/04 03:20:53;;;;;;;10.07;7.22;;;10.20;99.90;;;10.41;84.64;99346.38;5072788;28;20041;-73
2021/05/04 03:23:23;;;;;;;12.95;7.60;;;10.20;99.90;;;10.22;84.51;99269.38;5072751;28;20059;-73
2021/05/04 03:25:51;;;;;;;13.63;7.38;;;10.20;99.90;;;10.39;84.39;99300.63;5072821;28;20132;-73
2021/05/04 03:28:19;;;;;;;8.95;6.90;;;10.20;99.90;;;10.44;84.69;99304.00;5071446;28;20056;-72
2021/05/04 03:30:47;;;;;;;12.93;6.57;;;10.20;99.90;;;10.44;84.76;99296.94;5072659;28;20417;-72
2021/05/04 03:33:15;;;;;;;10.82;6.93;;;10.20;99.90;;;10.49;84.48;99308.22;5072585;28;20434;-74
2021/05/04 03:35:43;;;;;;;10.13;6.10;;;10.20;99.90;;;10.51;84.52;99316.13;5072361;28;20554;-73
2021/05/04 03:38:11;;;;;;;9.05;6.93;;;10.30;99.90;;;10.43;84.51;99281.13;5072564;28;20089;-73
2021/05/04 03:40:39;;;;;;;10.73;7.32;;;10.30;99.90;;;10.52;84.54;99294.06;5071294;28;20055;-73
2021/05/04 03:43:06;;;;;;;13.27;7.43;;;10.30;99.90;;;10.49;84.44;99278.31;5072217;28;20048;-73
2021/05/04 03:45:34;;;;;;;13.43;7.30;;;10.30;99.90;;;10.52;84.21;99280.84;5072550;28;20457;-73
2021/05/04 03:48:01;;;;;;;13.93;8.00;;;10.30;99.90;;;10.54;84.04;99279.03;5076250;28;20075;-73
2021/05/04 03:50:29;;;;;;;11.23;6.75;;;10.30;99.90;;;10.57;84.07;99294.78;5075132;28;20119;-73
2021/05/04 03:52:59;;;;;;;8.52;6.97;;;10.30;99.90;;;10.50;83.74;99287.97;5076228;28;20045;-73
2021/05/04 03:55:28;;;;;;;13.30;6.90;;;10.30;99.90;;;10.59;83.77;99256.81;5076319;28;20040;-73
2021/05/04 03:57:57;;;;;;;15.07;7.32;;;10.40;99.90;;;10.13;83.81;99171.03;5076138;28;20125;-73
2021/05/04 04:00:24;;;;;;;15.00;7.20;;;10.40;99.90;;;10.57;84.04;99247.19;5075912;28;20406;-73
2021/05/04 04:02:52;;;;;;;15.38;8.00;;;10.50;99.90;;;10.65;84.41;99258.41;5076108;28;20045;-73
2021/05/04 04:05:20;;;;;;;15.70;7.97;;;10.40;99.90;;;10.61;84.76;99246.19;5076031;28;20064;-73
2021/05/04 04:07:47;;;;;;;24.83;8.38;;;10.40;99.90;;;10.71;84.96;99255.56;5076003;28;20048;-73
2021/05/04 04:10:15;;;;;;;23.88;7.85;;;10.40;99.90;;;10.61;85.32;99270.88;5076002;28;20044;-73
2021/05/04 04:12:43;;;;;;;34.35;9.07;;;10.50;99.90;;;10.69;85.62;99225.69;5074556;28;20043;-72
2021/05/04 04:15:12;;;;;;;28.48;8.73;;;10.50;99.90;;;10.79;85.48;99237.69;5075967;28;20044;-73
2021/05/04 04:17:39;;;;;;;34.88;8.48;;;10.60;99.90;;;10.88;85.40;99242.69;5075515;28;20127;-69
2021/05/04 04:20:09;;;;;;;26.05;8.63;;;10.60;99.90;;;10.95;85.25;99253.94;5075530;28;20037;-72
2021/05/04 04:22:36;;;;;;;26.98;7.65;;;10.60;99.90;;;10.97;85.64;99233.59;5075688;28;20045;-71
2021/05/04 04:25:06;;;;;;;33.28;9.40;;;10.70;99.90;;;10.86;85.09;99228.66;5075815;28;20807;-71
2021/05/04 04:27:33;;;;;;;26.48;8.18;;;10.70;99.90;;;10.89;85.22;99233.84;5075696;28;20048;-73
2021/05/04 04:30:02;;;;;;;25.75;9.35;;;10.70;99.90;;;10.66;84.92;99180.84;5075631;28;20044;-72
2021/05/04 04:32:29;;;;;;;22.65;8.60;;;10.70;99.90;;;10.92;84.79;99233.75;5075595;28;20064;-71
2021/05/04 04:34:57;;;;;;;20.25;7.82;;;10.70;99.90;;;10.89;84.52;99224.16;5075304;28;20060;-70
2021/05/04 04:37:24;;;;;;;28.48;9.25;;;10.70;99.90;;;10.85;84.55;99209.28;5075469;28;20041;-70
2021/05/04 04:39:52;;;;;;;37.33;9.55;;;10.70;99.90;;;11.02;84.61;99216.66;5075209;28;20419;-70
2021/05/04 04:42:19;;;;;;;40.58;10.63;;;10.80;99.90;;;10.95;84.49;99212.50;5075405;28;20044;-72
2021/05/04 04:44:47;;;;;;;39.92;11.68;;;10.70;99.90;;;10.97;84.02;99215.97;5075551;28;20040;-72
2021/05/04 04:47:15;;;;;;;60.10;13.15;;;10.70;99.90;;;11.00;83.54;99212.34;5075053;28;20097;-72
2021/05/04 04:49:44;;;;;;;49.08;12.13;;;10.80;99.90;;;11.00;83.02;99207.91;5075329;28;20074;-72
2021/05/04 04:52:11;;;;;;;41.15;10.70;;;10.80;99.90;;;10.90;81.88;99177.38;5075171;28;20440;-72
2021/05/04 04:54:38;;;;;;;43.88;10.07;;;10.80;99.90;;;10.93;81.04;99202.88;5075164;28;20041;-73
2021/05/04 04:57:06;;;;;;;35.17;9.70;;;10.70;99.90;;;10.96;80.67;99240.66;5075026;28;20135;-73
2021/05/04 04:59:35;;;;;;;38.90;8.98;;;10.70;99.90;;;11.01;80.43;99207.03;5074373;28;20440;-73
2021/05/04 05:02:02;;;;;;;32.88;9.02;;;10.80;99.90;;;10.99;79.39;99211.50;5075041;28;20382;-73
2021/05/04 05:04:31;;;;;;;28.67;7.70;;;10.80;99.90;;;11.06;78.76;99220.94;5074776;28;20088;-73
2021/05/04 05:07:01;;;;;;;24.45;6.85;;;10.80;99.90;;;11.09;78.13;99202.31;5074969;28;20041;-72
2021/05/04 05:09:28;;;;;;;28.52;7.05;;;10.90;99.90;;;11.11;77.57;99200.47;5073681;28;20131;-73
2021/05/04 05:11:56;;;;;;;21.27;7.40;;;10.90;99.90;;;11.13;77.43;99196.00;5074893;28;20555;-74
2021/05/04 05:14:23;;;;;;;22.98;7.57;;;10.90;99.90;;;11.32;77.43;99194.50;5074831;28;20474;-72
2021/05/04 05:16:50;;;;;;;24.27;7.78;;;11.00;99.90;;;11.43;77.17;99215.28;5074675;28;20090;-73
2021/05/04 05:19:18;;;;;;;28.10;7.82;;;11.20;99.90;;;11.49;76.47;99212.44;5074662;28;20131;-73
2021/05/04 05:21:46;;;;;;;28.60;7.47;;;11.20;99.90;;;11.58;76.27;99217.38;5074627;28;20044;-74
2021/05/04 05:24:14;;;;;;;30.45;8.02;;;11.30;99.90;;;11.51;76.32;99210.59;5073253;28;20045;-73
2021/05/04 05:26:41;;;;;;;31.25;7.55;;;11.30;99.90;;;10.65;76.30;99089.22;5074538;28;20394;-68
2021/05/04 05:29:09;;;;;;;26.67;7.97;;;11.20;99.90;;;11.32;75.96;99197.13;5074476;28;20083;-72
2021/05/04 05:31:37;;;;;;;24.30;7.47;;;11.20;99.90;;;11.47;76.13;99207.19;5074350;28;20482;-72
2021/05/04 05:34:05;;;;;;;25.10;8.02;;;11.30;99.90;;;11.43;76.82;99237.34;5074404;28;20044;-72
2021/05/04 05:36:32;;;;;;;31.98;8.40;;;11.20;99.90;;;11.43;77.53;99228.50;5074339;28;20048;-71
2021/05/04 05:39:01;;;;;;;42.50;8.80;;;11.20;99.90;;;11.33;78.05;99225.31;5073867;28;20510;-72
2021/05/04 05:41:28;;;;;;;40.10;9.80;;;11.10;99.90;;;11.36;78.80;99233.16;5074184;28;20376;-72
2021/05/04 05:43:56;;;;;;;47.10;10.20;;;11.10;99.90;;;11.34;79.57;99224.38;5072788;28;20094;-72
2021/05/04 05:46:23;;;;;;;36.30;9.93;;;11.10;99.90;;;11.35;79.76;99249.09;5074015;28;20131;-72
2021/05/04 05:48:53;;;;;;;40.38;9.35;;;11.10;99.90;;;11.31;79.98;99223.63;5074190;28;20047;-72
2021/05/04 05:51:20;;;;;;;44.03;10.07;;;11.10;99.90;;;11.19;80.33;99222.25;5074038;28;20040;-72
2021/05/04 05:53:47;;;;;;;50.20;10.82;;;11.00;99.90;;;11.33;80.66;99242.97;5073913;28;20037;-72
2021/05/04 05:56:16;;;;;;;47.40;10.30;;;11.10;99.90;;;11.28;80.70;99210.53;5073876;28;20110;-72
2021/05/04 05:58:43;;;;;;;43.13;10.20;;;11.10;99.90;;;11.35;80.49;99235.84;5073715;28;20040;-72
2021/05/04 06:01:10;;;;;;;49.85;10.75;;;11.10;99.90;;;11.34;80.41;99253.50;5089385;28;20559;-72
2021/05/04 06:03:38;;;;;;;46.80;10.88;;;11.10;99.90;;;11.42;80.22;99232.94;5073235;28;20043;-72
2021/05/04 06:06:05;;;;;;;50.78;12.23;;;11.20;99.90;;;11.31;79.91;99229.78;5072149;28;20053;-72
2021/05/04 06:08:33;;;;;;;49.88;11.70;;;11.10;99.90;;;11.32;79.97;99239.47;5073492;28;20048;-72
2021/05/04 06:11:00;;;;;;;51.95;11.82;;;11.10;99.90;;;11.03;79.85;99181.38;5073498;28;20052;-73
2021/05/04 06:13:29;;;;;;;46.70;11.02;;;11.10;99.90;;;11.45;79.98;99232.84;5073484;28;20068;-72
2021/05/04 06:15:56;;;;;;;52.33;11.52;;;11.20;99.90;;;11.41;80.04;99231.22;5073485;28;20057;-72
2021/05/04 06:18:24;;;;;;;51.20;12.30;;;11.20;99.90;;;11.47;79.75;99230.16;5073409;28;20075;-72
2021/05/04 06:20:52;;;;;;;53.28;12.07;;;11.20;99.90;;;11.41;79.71;99228.56;5073265;28;20080;-72
2021/05/04 06:23:19;;;;;;;45.95;11.35;;;11.20;99.90;;;11.46;79.37;99210.75;5073402;28;20443;-72
2021/05/04 06:25:48;;;;;;;42.35;11.27;;;11.20;99.90;;;11.42;78.90;99240.88;5088944;28;20045;-73
2021/05/04 06:28:15;;;;;;;43.92;10.48;;;11.20;99.90;;;11.47;78.64;99233.66;5073186;28;20489;-72
2021/05/04 06:30:43;;;;;;;46.55;10.68;;;11.20;99.90;;;11.45;78.29;99237.28;5073311;28;20398;-72
2021/05/04 06:33:12;;;;;;;42.25;10.50;;;11.20;99.90;;;11.43;77.70;99226.75;5073264;28;20052;-73
2021/05/04 06:35:43;;;;;;;47.78;10.05;;;11.20;99.90;;;11.45;77.50;99227.56;5073263;28;20055;-72
2021/05/04 06:38:14;;;;;;;49.28;10.55;;;11.20;99.90;;;11.50;77.54;99204.44;5072938;28;20482;-72
2021/05/04 06:40:42;;;;;;;43.30;10.07;;;11.30;99.90;;;11.51;77.42;99222.06;5073237;28;20051;-72
2021/05/04 06:43:10;;;;;;;40.10;10.07;;;11.20;99.90;;;11.46;77.31;99236.34;5073056;28;20066;-73
2021/05/04 06:45:39;;;;;;;43.45;10.82;;;11.20;99.90;;;11.41;77.37;99196.81;5073132;28;20482;-74
2021/05/04 06:48:08;;;;;;;38.17;9.30;;;11.30;99.90;;;11.40;76.80;99202.16;5073107;28;20083;-72
2021/05/04 06:50:35;;;;;;;42.83;10.02;;;11.30;99.90;;;11.60;76.84;99240.25;5071779;28;20489;-74
2021/05/04 06:53:03;;;;;;;38.47;8.82;;;11.30;99.90;;;11.73;76.96;99246.00;5073130;28;20044;-74
2021/05/04 06:55:32;;;;;;;35.85;9.35;;;11.40;99.90;;;11.82;76.88;99234.25;5072994;28;20063;-72
2021/05/04 06:57:59;;;;;;;38.88;9.20;;;11.50;99.90;;;11.65;76.74;99206.56;5072847;28;20048;-72
2021/05/04 07:00:31;;;;;;;40.17;9.43;;;11.50;99.90;;;11.64;76.63;99239.25;5073032;28;20043;-72
2021/05/04 07:02:58;;;;;;;45.22;9.93;;;11.40;99.90;;;11.63;77.06;99232.19;5072923;28;20111;-72
2021/05/04 07:05:27;;;;;;;42.00;10.70;;;11.40;99.90;;;11.58;77.09;99239.44;5073034;28;20048;-73
2021/05/04 07:07:54;;;;;;;48.60;10.75;;;11.40;99.90;;;11.22;77.19;99169.25;5071554;28;20367;-73
2021/05/04 07:10:21;;;;;;;45.35;9.82;;;11.30;99.90;;;11.58;77.44;99231.50;5072829;28;20109;-73
2021/05/04 07:12:49;;;;;;;51.25;10.45;;;11.40;99.90;;;11.63;77.33;99228.72;5072441;28;20094;-73
2021/05/04 07:15:16;;;;;;;49.28;9.95;;;11.40;99.90;;;11.61;77.31;99220.78;5072804;28;20040;-72
2021/05/04 07:17:43;;;;;;;46.97;11.05;;;11.40;99.90;;;11.65;77.49;99232.16;5072664;28;20110;-72
2021/05/04 07:20:12;;;;;;;42.97;10.05;;;11.40;99.90;;;11.79;77.80;99219.31;5072832;28;20445;-72
2021/05/04 07:22:41;;;;;;;53.65;11.85;;;11.50;99.90;;;11.67;77.44;99223.25;5076174;28;20040;-71
2021/05/04 07:25:10;;;;;;;40.88;9.90;;;11.50;99.90;;;11.63;76.78;99236.66;5076803;28;20048;-71
2021/05/04 07:27:37;;;;;;;46.22;10.02;;;11.40;99.90;;;11.58;76.76;99226.22;5076783;28;20048;-71
2021/05/04 07:30:07;;;;;;;52.42;11.20;;;11.40;99.90;;;11.73;77.00;99230.13;5076744;28;20032;-70
2021/05/04 07:32:34;;;;;;;41.60;9.32;;;11.50;99.90;;;11.61;76.26;99235.84;5092346;28;20425;-70
2021/05/04 07:35:02;;;;;;;42.33;10.02;;;11.40;99.90;;;11.61;76.18;99244.63;5076617;28;20052;-70
2021/05/04 07:37:29;;;;;;;50.67;10.60;;;11.40;99.90;;;11.61;75.71;99230.53;5076511;28;20044;-71
2021/05/04 07:39:58;;;;;;;37.58;8.95;;;11.40;99.90;;;11.69;75.87;99239.97;5075368;28;20454;-74
2021/05/04 07:42:25;;;;;;;39.22;8.43;;;11.40;99.90;;;11.67;75.04;99230.38;5076385;28;20036;-74
2021/05/04 07:44:52;;;;;;;36.00;8.45;;;11.40;99.90;;;11.66;74.88;99234.78;5076644;28;20466;-74
2021/05/04 07:47:20;;;;;;;36.08;8.57;;;11.40;99.90;;;11.38;75.19;99207.50;5076397;28;20110;-73
2021/05/04 07:49:48;;;;;;;39.15;8.48;;;11.40;99.90;;;11.60;75.16;99212.91;5076118;28;20044;-74
2021/05/04 07:52:16;;;;;;;36.08;8.98;;;11.40;99.90;;;11.60;75.54;99231.44;5076018;28;20568;-74
2021/05/04 07:54:44;;;;;;;36.60;7.43;;;11.40;99.90;;;11.67;75.72;99233.00;5076190;28;20055;-74
2021/05/04 07:57:13;;;;;;;29.98;8.70;;;11.40;99.90;;;11.67;76.27;99212.66;5091815;28;20052;-74
2021/05/04 07:59:40;;;;;;;40.30;9.32;;;11.40;99.90;;;11.59;76.08;99238.50;5075994;28;20060;-76
2021/05/04 08:02:08;;;;;;;37.13;8.63;;;11.40;99.90;;;11.54;76.43;99229.88;5076132;28;20132;-74
2021/05/04 08:04:36;;;;;;;33.85;9.23;;;11.30;99.90;;;11.48;77.71;99230.09;5075765;28;20067;-74
2021/05/04 08:07:06;;;;;;;32.55;7.28;;;11.30;99.90;;;11.29;77.37;99231.63;5076092;28;20049;-74
2021/05/04 08:09:34;;;;;;;23.38;7.22;;;11.20;99.90;;;11.27;77.79;99233.47;5075749;28;20068;-75
2021/05/04 08:12:02;;;;;;;26.35;7.55;;;11.10;99.90;;;11.16;78.02;99255.91;5075968;28;20045;-74
2021/05/04 08:14:32;;;;;;;18.30;6.18;;;10.90;99.90;;;11.07;78.27;99232.41;5076113;28;20477;-74
2021/05/04 08:17:10;;;;;;;16.73;5.88;;;10.90;99.90;;;11.03;78.43;99242.22;5075945;28;20036;-71
2021/05/04 08:19:38;;;;;;;30.35;8.30;;;10.80;99.90;;;11.08;79.48;99232.34;5075529;28;20510;-72
2021/05/04 08:22:05;;;;;;;35.83;9.30;;;10.80;99.90;;;11.20;80.61;99239.88;5075728;28;20067;-71
2021/05/04 08:24:33;;;;;;;31.50;7.95;;;10.90;99.90;;;11.18;81.05;99224.97;5075453;28;20498;-72
2021/05/04 08:27:01;;;;;;;43.65;8.50;;;10.90;99.90;;;11.20;81.57;99223.13;5075749;28;20072;-71
2021/05/04 08:29:29;;;;;;;40.05;9.15;;;10.90;99.90;;;11.23;81.94;99229.19;5075662;28;20053;-72
2021/05/04 08:31:56;;;;;;;45.40;9.35;;;11.00;99.90;;;11.20;81.65;99201.97;5075329;28;20040;-71
2021/05/04 08:34:25;;;;;;;45.63;9.73;;;11.00;99.90;;;11.22;82.30;99226.59;5074572;28;20086;-71
2021/05/04 08:36:52;;;;;;;40.55;8.57;;;11.00;99.90;;;11.27;82.14;99183.19;5075460;28;20045;-71
2021/05/04 08:39:19;;;;;;;41.03;10.10;;;11.00;99.90;;;11.25;81.35;99186.78;5075388;28;20049;-71
2021/05/04 08:41:47;;;;;;;43.42;9.88;;;11.00;99.90;;;11.39;81.37;99211.00;5075439;28;20046;-71
2021/05/04 08:44:16;;;;;;;41.90;9.52;;;11.10;99.90;;;11.40;80.99;99204.81;5075480;28;20038;-71
2021/05/04 08:46:47;;;;;;;36.17;9.45;;;11.10;99.90;;;11.33;80.52;99222.69;5075331;28;20110;-72
2021/05/04 08:49:16;;;;;;;33.35;7.97;;;11.10;99.90;;;11.32;80.41;99202.44;5075410;28;20052;-73
2021/05/04 08:51:44;;;;;;;32.05;7.25;;;11.10;99.90;;;11.44;79.86;99211.72;5074999;28;20048;-71
2021/05/04 08:54:12;;;;;;;34.88;8.85;;;11.20;99.90;;;11.40;79.56;99210.94;5075197;28;20037;-72
2021/05/04 08:56:41;;;;;;;36.38;8.60;;;11.20;99.90;;;11.27;79.58;99220.22;5074909;28;20551;-71
2021/05/04 08:59:09;;;;;;;28.35;7.47;;;11.10;99.90;;;11.14;78.27;99223.34;5075035;28;20047;-73
2021/05/04 09:01:37;;;;;;;25.63;6.93;;;11.00;99.90;;;11.18;77.09;99214.38;5075115;28;20044;-72
2021/05/04 09:04:24;;;;;;;25.95;6.47;;;10.90;99.90;;;11.19;77.27;99259.31;5074890;28;20052;-71
2021/05/04 09:06:55;;;;;;;19.60;6.18;;;10.90;99.90;;;11.21;75.77;99257.47;5074868;28;20098;-71
2021/05/04 09:09:27;;;;;;;;;;;11.00;99.90;;;11.16;73.06;99271.78;5075131;28;20045;-71
2021/05/04 09:12:02;;;;;;;18.13;5.95;;;11.00;99.90;;;11.18;71.42;99270.81;5074737;28;19924;-71
2021/05/04 09:14:38;;;;;;;17.10;5.60;;;11.00;99.90;;;11.14;70.48;99271.84;5074882;28;20052;-74
2021/05/04 09:17:13;;;;;;;12.15;5.32;;;11.00;99.90;;;11.26;69.77;99294.38;5107418;28;20498;-74
2021/05/04 09:19:59;;;;;;;16.52;5.57;;;11.10;99.90;;;11.33;68.95;99306.50;5074721;28;20048;-74
2021/05/04 09:22:35;;;;;;;19.13;6.30;;;11.10;99.90;;;11.57;68.81;99318.94;5075059;28;20045;-73
2021/05/04 09:25:06;;;;;;;15.55;5.20;;;11.30;99.90;;;11.76;68.55;99280.34;5074733;28;20049;-72
2021/05/04 09:27:33;;;;;;;16.65;5.40;;;11.60;99.90;;;12.01;68.04;99309.50;5074406;28;20486;-69
2021/05/04 09:30:03;;;;;;;20.55;5.57;;;11.80;99.90;;;11.99;65.90;99306.91;5074186;28;20403;-75
2021/05/04 09:32:50;;;;;;;19.63;5.20;;;11.90;99.90;;;11.92;64.96;99339.84;5074519;28;20048;-71
2021/05/04 09:35:28;;;;;;;22.52;5.35;;;11.70;99.90;;;12.03;64.51;99342.09;5074121;28;20048;-71
2021/05/04 09:38:04;;;;;;;13.35;4.63;;;11.80;99.90;;;11.81;63.69;99315.47;5074410;28;20058;-70
2021/05/04 09:40:34;;;;;;;14.40;4.78;;;11.70;99.90;;;11.92;63.43;99346.91;5074333;28;20048;-70
2021/05/04 09:43:11;;;;;;;20.63;5.60;;;11.70;99.90;;;12.00;63.01;99336.94;5074241;28;20572;-70
2021/05/04 09:45:42;;;;;;;23.63;5.57;;;11.80;99.90;;;11.82;63.64;99354.31;5073864;28;20048;-71
2021/05/04 09:48:22;;;;;;;12.90;5.32;;;11.70;99.90;;;11.73;64.27;99366.06;5073912;28;20055;-71
2021/05/04 09:51:00;;;;;;;16.52;5.30;;;11.60;99.90;;;11.82;64.34;99358.75;5074172;28;20044;-69
2021/05/04 09:53:38;;;;;;;18.15;4.85;;;11.60;99.90;;;11.79;64.86;99373.81;5074095;28;20067;-68
2021/05/04 09:56:07;;;;;;;11.70;4.63;;;11.60;99.90;;;11.59;64.99;99362.97;5074081;28;20111;-71
2021/05/04 09:58:41;;;;;;;18.73;5.38;;;11.40;99.90;;;11.28;66.02;99362.25;5073885;28;20040;-70
2021/05/04 10:01:11;;;;;;;14.32;5.15;;;11.20;99.90;;;11.41;66.19;99371.53;5073966;28;20124;-70
2021/05/04 10:03:40;;;;;;;19.77;6.03;;;11.20;99.90;;;11.42;66.23;99380.34;5073965;28;20056;-69
2021/05/04 10:06:11;;;;;;;15.93;5.60;;;11.20;99.90;;;11.52;66.29;99400.28;5073887;28;20099;-70
2021/05/04 10:08:40;;;;;;;14.20;5.03;;;11.30;99.90;;;11.44;66.01;99402.34;5073751;28;20135;-70
2021/05/04 10:11:10;;;;;;;18.48;5.60;;;11.20;99.90;;;11.26;65.18;99368.50;5073464;28;20041;-70
2021/05/04 10:13:40;;;;;;;15.95;5.07;;;11.20;99.90;;;11.35;65.44;99407.91;5072100;28;20401;-71
2021/05/04 10:16:09;;;;;;;17.52;5.78;;;11.10;99.90;;;11.47;65.90;99413.69;5073467;28;20506;-71
2021/05/04 10:18:38;;;;;;;15.00;5.45;;;11.20;99.90;;;11.29;64.82;99382.50;5073517;28;20064;-72